createdAt,value
2019-05-18T00:01:33.012Z,11.90
2019-05-18T00:04:01.576Z,11.90
2019-05-18T00:06:30.123Z,11.80
2019-05-18T00:08:58.774Z,11.90
2019-05-18T00:11:27.555Z,11.90
2019-05-18T00:13:56.244Z,11.90
2019-05-18T00:16:24.950Z,12.00
2019-05-18T00:18:53.718Z,12.00
2019-05-18T00:21:22.403Z,12.00
2019-05-18T00:23:51.139Z,12.00
2019-05-18T00:26:20.928Z,12.00
2019-05-18T00:28:49.627Z,12.00
2019-05-18T00:31:18.353Z,12.00
2019-05-18T00:33:46.963Z,12.10
2019-05-18T00:36:15.591Z,12.10
2019-05-18T00:38:44.218Z,12.10
2019-05-18T00:41:12.943Z,12.10
2019-05-18T00:43:41.652Z,12.20
2019-05-18T00:46:10.347Z,12.20
2019-05-18T00:48:39.031Z,12.30
2019-05-18T00:51:07.734Z,12.30
2019-05-18T00:53:37.255Z,12.20
2019-05-18T00:56:06.070Z,12.20
2019-05-18T00:58:34.715Z,12.30
2019-05-18T01:01:03.444Z,12.30
2019-05-18T01:03:32.143Z,12.30
2019-05-18T01:06:00.772Z,12.30
2019-05-18T01:08:29.351Z,12.30
2019-05-18T01:10:58.047Z,12.30
2019-05-18T01:13:26.885Z,12.30
2019-05-18T01:15:55.602Z,12.30
2019-05-18T01:18:24.229Z,12.30
2019-05-18T01:20:52.926Z,12.30
2019-05-18T01:23:21.591Z,12.30
2019-05-18T01:25:50.287Z,12.30
2019-05-18T01:28:19.719Z,12.30
2019-05-18T01:30:48.477Z,12.30
2019-05-18T01:33:17.176Z,12.30
2019-05-18T01:35:45.877Z,12.30
2019-05-18T01:38:14.462Z,12.20
2019-05-18T01:40:43.090Z,12.20
2019-05-18T01:43:11.725Z,12.20
2019-05-18T01:45:40.315Z,12.20
2019-05-18T01:48:13.769Z,12.20
2019-05-18T01:50:39.158Z,12.20
2019-05-18T01:53:07.819Z,12.20
2019-05-18T01:55:36.386Z,12.20
2019-05-18T01:58:05.081Z,12.10
2019-05-18T02:00:33.828Z,12.10
2019-05-18T02:03:02.461Z,12.10
2019-05-18T02:05:31.091Z,12.10
2019-05-18T02:07:59.748Z,12.00
2019-05-18T02:10:30.722Z,12.00
2019-05-18T02:13:01.735Z,12.00
2019-05-18T02:15:30.440Z,12.00
2019-05-18T02:17:58.997Z,12.00
2019-05-18T02:20:27.634Z,12.00
2019-05-18T02:22:56.290Z,12.00
2019-05-18T02:25:24.851Z,12.00
2019-05-18T02:27:53.408Z,12.00
2019-05-18T02:30:22.155Z,11.90
2019-05-18T02:32:50.795Z,11.90
2019-05-18T02:35:19.494Z,11.90
2019-05-18T02:37:48.094Z,11.90
2019-05-18T02:40:16.891Z,11.90
2019-05-18T02:42:45.525Z,11.80
2019-05-18T02:45:14.359Z,11.80
2019-05-18T02:47:44.503Z,11.80
2019-05-18T02:50:13.213Z,11.80
2019-05-18T02:52:41.788Z,11.70
2019-05-18T02:55:12.251Z,11.70
2019-05-18T02:57:40.965Z,11.70
2019-05-18T03:00:10.189Z,11.60
2019-05-18T03:02:38.841Z,11.60
2019-05-18T03:05:07.738Z,11.50
2019-05-18T03:07:36.461Z,11.50
2019-05-18T03:10:06.447Z,11.50
2019-05-18T03:12:35.159Z,11.50
2019-05-18T03:15:04.532Z,11.50
2019-05-18T03:17:33.312Z,11.50
2019-05-18T03:20:01.963Z,11.60
2019-05-18T03:22:30.663Z,11.60
2019-05-18T03:24:59.794Z,11.60
2019-05-18T03:27:28.414Z,11.60
2019-05-18T03:29:56.980Z,11.70
2019-05-18T03:32:26.680Z,11.70
2019-05-18T03:34:55.296Z,11.70
2019-05-18T03:37:25.195Z,11.70
2019-05-18T03:39:55.311Z,11.80
2019-05-18T03:42:24.015Z,11.90
2019-05-18T03:44:52.715Z,11.90
2019-05-18T03:47:21.386Z,12.00
2019-05-18T03:49:50.022Z,12.00
2019-05-18T03:52:18.647Z,12.10
2019-05-18T03:54:48.452Z,12.10
2019-05-18T03:57:17.078Z,12.20
2019-05-18T03:59:46.779Z,12.40
2019-05-18T04:02:15.382Z,12.50
2019-05-18T04:04:45.471Z,12.60
2019-05-18T04:07:14.036Z,12.70
2019-05-18T04:09:42.694Z,12.70
2019-05-18T04:12:11.243Z,12.80
2019-05-18T04:14:39.902Z,12.90
2019-05-18T04:17:08.635Z,12.90
2019-05-18T04:19:46.338Z,12.90
2019-05-18T04:22:07.692Z,12.90
2019-05-18T04:24:36.367Z,12.90
2019-05-18T04:27:06.492Z,12.90
2019-05-18T04:29:35.120Z,13.10
2019-05-18T04:32:03.698Z,13.20
2019-05-18T04:34:32.320Z,13.40
2019-05-18T04:37:00.929Z,13.60
2019-05-18T04:39:29.448Z,13.80
2019-05-18T04:41:58.012Z,14.20
2019-05-18T04:44:26.581Z,15.10
2019-05-18T04:46:55.428Z,15.70
2019-05-18T04:49:24.048Z,16.40
2019-05-18T04:51:52.606Z,17.00
2019-05-18T04:54:21.207Z,17.90
2019-05-18T04:56:49.831Z,18.70
2019-05-18T04:59:18.525Z,19.20
2019-05-18T05:01:47.256Z,19.70
2019-05-18T05:04:15.867Z,19.90
2019-05-18T05:06:44.432Z,19.20
2019-05-18T05:09:13.103Z,18.40
2019-05-18T05:11:41.723Z,18.10
2019-05-18T05:14:10.351Z,18.80
2019-05-18T05:16:39.119Z,19.70
2019-05-18T05:19:08.798Z,20.30
2019-05-18T05:21:37.462Z,21.10
2019-05-18T05:24:06.025Z,22.10
2019-05-18T05:26:34.789Z,22.90
2019-05-18T05:29:03.534Z,23.30
2019-05-18T05:31:32.111Z,23.70
2019-05-18T05:34:00.740Z,23.90
2019-05-18T05:36:29.330Z,23.80
2019-05-18T05:38:58.022Z,24.30
2019-05-18T05:41:26.643Z,25.00
2019-05-18T05:43:55.316Z,25.40
2019-05-18T05:46:24.011Z,25.50
2019-05-18T05:48:52.635Z,26.00
2019-05-18T05:51:21.218Z,26.20
2019-05-18T05:53:49.779Z,26.60
2019-05-18T05:56:18.403Z,27.10
2019-05-18T05:58:46.990Z,27.30
2019-05-18T06:01:15.680Z,27.70
2019-05-18T06:03:44.414Z,28.30
2019-05-18T06:06:13.111Z,28.60
2019-05-18T06:08:41.735Z,29.00
2019-05-18T06:11:10.388Z,29.30
2019-05-18T06:13:39.014Z,30.00
2019-05-18T06:16:07.605Z,29.80
2019-05-18T06:18:36.205Z,29.40
2019-05-18T06:21:04.956Z,29.80
2019-05-18T06:23:33.583Z,30.20
2019-05-18T06:26:02.251Z,29.90
2019-05-18T06:28:30.814Z,29.40
2019-05-18T06:30:59.376Z,30.00
2019-05-18T06:33:28.034Z,29.70
2019-05-18T06:35:56.603Z,28.10
2019-05-18T06:38:25.223Z,25.90
2019-05-18T06:40:53.810Z,24.20
2019-05-18T06:43:22.443Z,22.90
2019-05-18T06:45:51.063Z,22.20
2019-05-18T06:48:19.867Z,21.60
2019-05-18T06:50:48.662Z,21.80
2019-05-18T06:53:17.283Z,21.90
2019-05-18T06:55:45.929Z,22.20
2019-05-18T06:58:15.380Z,22.90
2019-05-18T07:00:43.994Z,23.70
2019-05-18T07:03:12.703Z,24.80
2019-05-18T07:05:41.335Z,25.70
2019-05-18T07:08:09.985Z,26.30
2019-05-18T07:10:38.551Z,26.90
2019-05-18T07:13:07.178Z,27.50
2019-05-18T07:15:35.812Z,27.40
2019-05-18T07:18:04.562Z,26.50
2019-05-18T07:20:33.256Z,27.10
2019-05-18T07:23:01.825Z,28.50
2019-05-18T07:25:30.459Z,29.00
2019-05-18T07:27:59.092Z,30.00
2019-05-18T07:30:27.707Z,30.40
2019-05-18T07:32:57.373Z,30.80
2019-05-18T07:35:25.923Z,31.30
2019-05-18T07:37:54.516Z,31.40
2019-05-18T07:40:23.147Z,31.60
2019-05-18T07:42:51.672Z,31.10
2019-05-18T07:45:20.375Z,31.60
2019-05-18T07:47:50.336Z,32.00
2019-05-18T07:50:19.139Z,32.30
2019-05-18T07:52:47.701Z,32.10
2019-05-18T07:55:16.435Z,31.90
2019-05-18T07:57:45.043Z,31.80
2019-05-18T08:00:13.741Z,31.70
2019-05-18T08:02:42.394Z,31.30
2019-05-18T08:05:11.516Z,31.30
2019-05-18T08:07:40.211Z,30.20
2019-05-18T08:10:09.240Z,29.60
2019-05-18T08:12:37.935Z,28.50
2019-05-18T08:15:09.337Z,27.20
2019-05-18T08:17:37.989Z,25.70
2019-05-18T08:20:07.365Z,24.70
2019-05-18T08:22:36.047Z,24.20
2019-05-18T08:25:06.974Z,23.80
2019-05-18T08:27:35.599Z,23.70
2019-05-18T08:30:05.899Z,23.90
2019-05-18T08:32:34.560Z,23.90
2019-05-18T08:35:03.625Z,23.50
2019-05-18T08:37:32.275Z,23.40
2019-05-18T08:40:00.926Z,23.20
2019-05-18T08:42:29.554Z,23.10
2019-05-18T08:44:58.113Z,23.20
2019-05-18T08:47:26.698Z,23.30
2019-05-18T08:49:55.255Z,23.50
2019-05-18T08:52:23.802Z,23.50
2019-05-18T08:54:52.380Z,23.50
2019-05-18T08:57:20.948Z,23.30
2019-05-18T08:59:49.538Z,23.50
2019-05-18T09:02:18.095Z,23.80
2019-05-18T09:04:46.725Z,24.00
2019-05-18T09:07:15.414Z,23.80
2019-05-18T09:09:44.142Z,24.00
2019-05-18T09:12:12.695Z,24.00
2019-05-18T09:14:41.405Z,23.80
2019-05-18T09:17:10.066Z,23.90
2019-05-18T09:19:38.623Z,24.20
2019-05-18T09:22:07.319Z,24.30
2019-05-18T09:24:35.903Z,24.20
2019-05-18T09:27:04.596Z,24.20
2019-05-18T09:29:33.219Z,24.10
2019-05-18T09:32:01.968Z,24.00
2019-05-18T09:34:30.510Z,23.80
2019-05-18T09:36:59.065Z,23.60
2019-05-18T09:39:27.664Z,23.50
2019-05-18T09:41:56.291Z,23.40
2019-05-18T09:44:24.843Z,23.30
2019-05-18T09:46:53.506Z,23.30
2019-05-18T09:49:22.190Z,23.30
2019-05-18T09:51:50.884Z,23.30
2019-05-18T09:54:19.461Z,23.50
2019-05-18T09:56:48.083Z,23.50
2019-05-18T09:59:16.710Z,23.90
2019-05-18T10:01:45.295Z,23.90
2019-05-18T10:04:13.922Z,23.50
2019-05-18T10:06:42.479Z,23.50
2019-05-18T10:09:11.210Z,23.50
2019-05-18T10:11:39.772Z,23.70
2019-05-18T10:14:08.386Z,23.80
2019-05-18T10:16:36.996Z,23.40
2019-05-18T10:19:05.688Z,23.30
2019-05-18T10:21:34.360Z,23.10
2019-05-18T10:24:03.050Z,22.80
2019-05-18T10:26:31.609Z,22.80
2019-05-18T10:29:00.320Z,23.20
2019-05-18T10:31:28.966Z,23.60
2019-05-18T10:33:57.648Z,23.80
2019-05-18T10:36:26.407Z,24.00
2019-05-18T10:38:54.960Z,24.40
2019-05-18T10:41:23.610Z,24.40
2019-05-18T10:43:52.238Z,24.50
2019-05-18T10:46:20.795Z,24.70
2019-05-18T10:48:49.521Z,25.00
2019-05-18T10:51:18.156Z,25.10
2019-05-18T10:53:46.710Z,25.20
2019-05-18T10:56:15.283Z,25.40
2019-05-18T10:58:43.984Z,25.50
2019-05-18T11:01:12.594Z,25.40
2019-05-18T11:03:41.191Z,25.20
2019-05-18T11:06:09.875Z,25.30
2019-05-18T11:08:38.607Z,25.40
2019-05-18T11:11:07.319Z,25.10
2019-05-18T11:13:35.870Z,25.20
2019-05-18T11:16:04.655Z,25.50
2019-05-18T11:18:33.330Z,25.80
2019-05-18T11:21:01.978Z,26.00
2019-05-18T11:23:42.871Z,26.00
2019-05-18T11:26:00.806Z,25.90
2019-05-18T11:28:29.435Z,25.60
2019-05-18T11:30:57.994Z,25.70
2019-05-18T11:33:26.648Z,25.70
2019-05-18T11:35:55.273Z,25.90
2019-05-18T11:38:24.492Z,26.10
2019-05-18T11:40:53.150Z,26.20
2019-05-18T11:43:21.704Z,26.20
2019-05-18T11:45:50.395Z,25.90
2019-05-18T11:48:19.061Z,25.90
2019-05-18T11:50:47.756Z,25.80
2019-05-18T11:53:16.449Z,25.80
2019-05-18T11:55:45.180Z,26.00
2019-05-18T11:58:13.850Z,26.20
2019-05-18T12:00:42.553Z,26.30
2019-05-18T12:03:11.266Z,26.40
2019-05-18T12:05:39.895Z,26.40
2019-05-18T12:08:08.529Z,26.50
2019-05-18T12:10:37.202Z,26.70
2019-05-18T12:13:05.903Z,26.40
2019-05-18T12:15:34.590Z,26.40
2019-05-18T12:18:03.229Z,26.40
2019-05-18T12:20:31.914Z,26.30
2019-05-18T12:23:00.468Z,26.20
2019-05-18T12:25:29.140Z,26.20
2019-05-18T12:27:57.802Z,26.20
2019-05-18T12:30:26.554Z,26.00
2019-05-18T12:32:55.279Z,25.90
2019-05-18T12:35:24.984Z,25.90
2019-05-18T12:37:53.540Z,25.80
2019-05-18T12:40:22.763Z,25.80
2019-05-18T12:42:51.469Z,25.90
2019-05-18T12:45:20.556Z,25.70
2019-05-18T12:47:49.289Z,25.80
2019-05-18T12:50:20.043Z,25.80
2019-05-18T12:52:48.734Z,25.70
2019-05-18T12:55:18.367Z,25.70
2019-05-18T12:57:47.098Z,25.80
2019-05-18T13:00:17.584Z,25.90
2019-05-18T13:02:46.282Z,25.90
2019-05-18T13:05:15.880Z,26.00
2019-05-18T13:07:44.428Z,25.90
2019-05-18T13:10:13.647Z,25.90
2019-05-18T13:12:42.209Z,26.00
2019-05-18T13:15:12.351Z,26.00
2019-05-18T13:17:41.078Z,26.00
2019-05-18T13:20:11.834Z,25.90
2019-05-18T13:22:42.273Z,25.90
2019-05-18T13:25:11.498Z,25.80
2019-05-18T13:27:40.372Z,25.60
2019-05-18T13:30:11.064Z,25.50
2019-05-18T13:32:39.779Z,25.30
2019-05-18T13:35:08.958Z,25.10
2019-05-18T13:37:37.655Z,25.10
2019-05-18T13:40:07.811Z,25.10
2019-05-18T13:42:36.441Z,25.10
2019-05-18T13:45:07.794Z,25.10
2019-05-18T13:47:36.515Z,25.20
2019-05-18T13:50:05.926Z,25.10
2019-05-18T13:52:34.631Z,25.20
2019-05-18T13:55:05.162Z,25.00
2019-05-18T13:57:34.109Z,24.90
2019-05-18T14:00:02.856Z,24.60
2019-05-18T14:02:31.494Z,24.40
2019-05-18T14:05:00.065Z,24.20
2019-05-18T14:07:28.716Z,24.20
2019-05-18T14:09:57.392Z,24.50
2019-05-18T14:12:26.011Z,24.60
2019-05-18T14:14:54.635Z,24.80
2019-05-18T14:17:23.279Z,25.00
2019-05-18T14:19:51.984Z,25.10
2019-05-18T14:22:20.545Z,25.20
2019-05-18T14:24:49.105Z,25.10
2019-05-18T14:27:18.770Z,25.00
2019-05-18T14:29:47.327Z,25.00
2019-05-18T14:32:15.918Z,25.00
2019-05-18T14:34:44.483Z,25.10
2019-05-18T14:37:13.171Z,25.10
2019-05-18T14:39:41.884Z,24.90
2019-05-18T14:42:10.508Z,24.70
2019-05-18T14:44:39.144Z,24.60
2019-05-18T14:47:07.883Z,24.70
2019-05-18T14:49:36.494Z,24.80
2019-05-18T14:52:06.374Z,24.80
2019-05-18T14:54:34.920Z,24.90
2019-05-18T14:57:03.606Z,25.00
2019-05-18T14:59:32.303Z,25.10
2019-05-18T15:02:00.912Z,25.20
2019-05-18T15:04:29.460Z,25.10
2019-05-18T15:06:58.083Z,25.10
2019-05-18T15:09:26.825Z,25.20
2019-05-18T15:11:55.422Z,25.10
2019-05-18T15:14:24.005Z,25.10
2019-05-18T15:16:53.154Z,25.00
2019-05-18T15:19:21.736Z,25.00
2019-05-18T15:21:50.621Z,25.00
2019-05-18T15:24:19.299Z,24.90
2019-05-18T15:26:47.987Z,24.80
2019-05-18T15:29:16.602Z,24.80
2019-05-18T15:31:45.391Z,24.80
2019-05-18T15:34:14.007Z,24.60
2019-05-18T15:36:42.604Z,24.60
2019-05-18T15:39:11.300Z,24.60
2019-05-18T15:41:39.907Z,24.50
2019-05-18T15:44:08.560Z,24.50
2019-05-18T15:46:37.108Z,24.50
2019-05-18T15:49:05.809Z,24.50
2019-05-18T15:51:34.522Z,24.50
2019-05-18T15:54:03.202Z,24.50
2019-05-18T15:56:31.779Z,24.50
2019-05-18T15:59:00.470Z,24.50
2019-05-18T16:01:28.947Z,24.40
2019-05-18T16:03:57.663Z,24.20
2019-05-18T16:06:26.346Z,24.20
2019-05-18T16:08:55.035Z,24.20
2019-05-18T16:11:23.678Z,24.10
2019-05-18T16:13:52.381Z,24.00
2019-05-18T16:16:21.185Z,23.90
2019-05-18T16:18:49.721Z,23.90
2019-05-18T16:21:18.330Z,23.80
2019-05-18T16:23:46.976Z,23.80
2019-05-18T16:26:21.521Z,23.80
2019-05-18T16:28:45.960Z,23.80
2019-05-18T16:31:14.575Z,23.70
2019-05-18T16:33:43.278Z,23.70
2019-05-18T16:36:11.931Z,23.60
2019-05-18T16:38:40.542Z,23.60
2019-05-18T16:41:09.092Z,23.60
2019-05-18T16:43:37.676Z,23.50
2019-05-18T16:46:06.376Z,23.50
2019-05-18T16:48:34.922Z,23.50
2019-05-18T16:51:03.567Z,23.30
2019-05-18T16:53:32.192Z,23.20
2019-05-18T16:56:00.740Z,23.20
2019-05-18T16:58:29.416Z,23.00
2019-05-18T17:00:58.038Z,23.00
2019-05-18T17:03:26.580Z,22.90
2019-05-18T17:05:55.236Z,22.90
2019-05-18T17:08:23.795Z,22.80
2019-05-18T17:10:52.403Z,22.60
2019-05-18T17:13:21.115Z,22.60
2019-05-18T17:15:49.812Z,22.50
2019-05-18T17:18:18.434Z,22.40
2019-05-18T17:20:47.053Z,22.30
2019-05-18T17:23:15.707Z,22.20
2019-05-18T17:25:44.413Z,22.10
2019-05-18T17:28:13.098Z,22.00
2019-05-18T17:30:42.787Z,21.90
2019-05-18T17:33:11.509Z,21.70
2019-05-18T17:35:40.203Z,21.70
2019-05-18T17:38:08.866Z,21.60
2019-05-18T17:40:37.490Z,21.50
2019-05-18T17:43:06.178Z,21.30
2019-05-18T17:45:34.775Z,21.20
2019-05-18T17:48:03.458Z,21.10
2019-05-18T17:50:32.069Z,20.90
2019-05-18T17:53:00.652Z,20.90
2019-05-18T17:55:29.272Z,20.70
2019-05-18T17:57:58.075Z,20.60
2019-05-18T18:00:26.719Z,20.50
2019-05-18T18:02:55.278Z,20.40
2019-05-18T18:05:23.912Z,20.30
2019-05-18T18:07:55.446Z,20.20
2019-05-18T18:10:22.910Z,20.00
2019-05-18T18:12:51.395Z,19.90
2019-05-18T18:15:20.134Z,19.80
2019-05-18T18:17:50.469Z,19.70
2019-05-18T18:20:19.284Z,19.60
2019-05-18T18:22:47.859Z,19.50
2019-05-18T18:25:16.405Z,19.40
2019-05-18T18:27:45.104Z,19.30
2019-05-18T18:30:14.818Z,19.20
2019-05-18T18:32:43.434Z,19.10
2019-05-18T18:35:12.203Z,19.00
2019-05-18T18:37:40.863Z,18.80
2019-05-18T18:40:09.867Z,18.70
2019-05-18T18:42:38.892Z,18.60
2019-05-18T18:45:08.021Z,18.40
2019-05-18T18:47:36.708Z,18.30
2019-05-18T18:50:06.964Z,18.10
2019-05-18T18:52:35.610Z,18.00
2019-05-18T18:55:05.809Z,17.80
2019-05-18T18:57:41.284Z,17.70
2019-05-18T19:00:07.039Z,17.50
2019-05-18T19:02:35.728Z,17.30
2019-05-18T19:05:05.927Z,17.10
2019-05-18T19:07:34.571Z,16.90
2019-05-18T19:10:03.283Z,16.70
2019-05-18T19:12:31.812Z,16.60
2019-05-18T19:15:00.525Z,16.40
2019-05-18T19:17:29.219Z,16.30
2019-05-18T19:19:57.839Z,16.10
2019-05-18T19:22:26.507Z,16.00
2019-05-18T19:24:55.880Z,15.90
2019-05-18T19:27:24.580Z,15.70
2019-05-18T19:29:53.317Z,15.60
2019-05-18T19:32:21.859Z,15.50
2019-05-18T19:34:50.487Z,15.40
2019-05-18T19:37:19.056Z,15.20
2019-05-18T19:39:47.755Z,15.20
2019-05-18T19:42:16.374Z,15.00
2019-05-18T19:44:45.080Z,14.90
2019-05-18T19:47:13.772Z,14.80
2019-05-18T19:49:42.402Z,14.70
2019-05-18T19:52:10.991Z,14.60
2019-05-18T19:54:39.619Z,14.50
2019-05-18T19:57:08.307Z,14.40
2019-05-18T19:59:36.911Z,14.40
2019-05-18T20:02:05.615Z,14.40
2019-05-18T20:04:34.265Z,14.30
2019-05-18T20:07:02.823Z,14.30
2019-05-18T20:09:31.460Z,14.20
2019-05-18T20:12:00.015Z,14.20
2019-05-18T20:14:28.610Z,14.20
2019-05-18T20:16:57.321Z,14.20
2019-05-18T20:19:38.201Z,14.20
2019-05-18T20:21:56.231Z,14.20
2019-05-18T20:24:24.850Z,14.20
2019-05-18T20:26:53.411Z,14.30
2019-05-18T20:29:22.059Z,14.30
2019-05-18T20:31:50.623Z,14.40
2019-05-18T20:34:19.192Z,14.40
2019-05-18T20:36:47.934Z,14.40
2019-05-18T20:39:16.478Z,14.30
2019-05-18T20:41:45.109Z,14.20
2019-05-18T20:44:13.772Z,14.10
2019-05-18T20:46:42.401Z,14.00
2019-05-18T20:49:11.088Z,13.90
2019-05-18T20:51:39.674Z,13.90
2019-05-18T20:54:08.299Z,13.80
2019-05-18T20:56:36.927Z,13.70
2019-05-18T20:59:05.660Z,13.70
2019-05-18T21:01:34.289Z,13.60
2019-05-18T21:04:02.982Z,13.60
2019-05-18T21:06:31.656Z,13.50
2019-05-18T21:09:00.352Z,13.40
2019-05-18T21:11:28.980Z,13.30
2019-05-18T21:13:57.931Z,13.30
2019-05-18T21:16:26.487Z,13.10
2019-05-18T21:18:55.125Z,13.10
2019-05-18T21:21:25.989Z,13.00
2019-05-18T21:23:54.619Z,12.90
2019-05-18T21:26:23.438Z,12.90
2019-05-18T21:28:57.579Z,12.70
2019-05-18T21:31:22.291Z,12.70
2019-05-18T21:33:51.004Z,12.60
2019-05-18T21:36:19.578Z,12.50
2019-05-18T21:38:48.136Z,12.50
2019-05-18T21:41:16.763Z,12.40
2019-05-18T21:43:45.338Z,12.40
2019-05-18T21:46:14.248Z,12.30
2019-05-18T21:48:42.799Z,12.20
2019-05-18T21:51:11.662Z,12.20
2019-05-18T21:53:40.421Z,12.20
2019-05-18T21:56:09.035Z,12.20
2019-05-18T21:58:37.788Z,12.20
2019-05-18T22:01:06.994Z,12.20
2019-05-18T22:03:35.581Z,12.20
2019-05-18T22:06:04.314Z,12.20
2019-05-18T22:08:32.998Z,12.30
2019-05-18T22:11:01.616Z,12.30
2019-05-18T22:13:30.198Z,12.40
2019-05-18T22:15:58.823Z,12.40
2019-05-18T22:18:27.390Z,12.30
2019-05-18T22:20:55.964Z,12.30
2019-05-18T22:23:24.589Z,12.30
2019-05-18T22:25:56.686Z,12.30
2019-05-18T22:28:23.388Z,12.20
2019-05-18T22:30:51.957Z,12.20
2019-05-18T22:33:20.642Z,12.20
2019-05-18T22:35:49.250Z,12.30
2019-05-18T22:38:19.188Z,12.30
2019-05-18T22:40:48.198Z,12.30
2019-05-18T22:43:16.898Z,12.40
2019-05-18T22:45:46.993Z,12.40
2019-05-18T22:48:15.613Z,12.30
2019-05-18T22:50:44.283Z,12.30
2019-05-18T22:53:13.028Z,12.20
2019-05-18T22:55:41.714Z,12.20
2019-05-18T22:58:10.275Z,12.20
2019-05-18T23:00:38.908Z,12.10
2019-05-18T23:03:07.488Z,12.00
2019-05-18T23:05:36.687Z,12.00
2019-05-18T23:08:05.385Z,11.90
2019-05-18T23:10:34.143Z,11.90
2019-05-18T23:13:02.763Z,11.90
2019-05-18T23:15:31.455Z,11.80
2019-05-18T23:18:00.027Z,11.70
2019-05-18T23:20:28.656Z,11.70
2019-05-18T23:22:57.260Z,11.70
2019-05-18T23:25:25.810Z,11.70
2019-05-18T23:27:54.372Z,11.90
2019-05-18T23:30:23.101Z,12.00
2019-05-18T23:32:51.808Z,12.10
2019-05-18T23:35:20.384Z,12.00
2019-05-18T23:37:48.988Z,12.10
2019-05-18T23:40:18.778Z,12.10
2019-05-18T23:42:47.352Z,12.20
2019-05-18T23:45:16.090Z,12.20
2019-05-18T23:47:44.614Z,12.20
2019-05-18T23:50:13.498Z,12.20
2019-05-18T23:52:42.078Z,12.20
2019-05-18T23:55:10.972Z,12.10
2019-05-18T23:57:39.527Z,12.10
